Time;durP1;ratioP1;P1;durP2;ratioP2;P2;SDS_P1;SDS_P2;PMS_P1;PMS_P2;Temp;Humidity;BMP_temperature;BMP_pressure;BME280_temperature;BME280_humidity;BME280_pressure;Samples;Min_cycle;Max_cycle;Signal;HPM_P1;HPM_P2
2021/07/19 00:00:11;;;;;;;4.32;4.03;;;11.50;99.90;;;;;;5074350;28;20089;-61
2021/07/19 00:02:39;;;;;;;4.25;3.95;;;11.50;99.90;;;;;;5076617;28;20401;-61
2021/07/19 00:05:09;;;;;;;4.80;4.40;;;11.50;99.90;;;;;;5076565;28;20035;-61
2021/07/19 00:07:36;;;;;;;4.95;4.22;;;11.70;99.90;;;;;;5076476;28;20384;-61
2021/07/19 00:10:07;;;;;;;4.75;4.18;;;11.70;99.90;;;;;;5076337;28;20448;-60
2021/07/19 00:12:34;;;;;;;4.50;3.63;;;11.90;99.90;;;;;;5076592;28;20020;-61
2021/07/19 00:15:04;;;;;;;3.95;3.55;;;12.10;99.90;;;;;;5074861;28;20052;-60
2021/07/19 00:17:31;;;;;;;4.00;3.70;;;12.30;99.90;;;;;;5076112;28;20032;-60
2021/07/19 00:19:58;;;;;;;5.85;4.45;;;12.70;99.90;;;;;;5076081;28;20027;-61
2021/07/19 00:22:26;;;;;;;3.40;3.20;;;12.90;99.90;;;;;;5076064;28;20045;-62
2021/07/19 00:24:53;;;;;;;3.90;3.70;;;12.80;99.70;;;;;;5076513;28;20465;-63
2021/07/19 00:27:20;;;;;;;3.67;3.47;;;12.70;99.90;;;;;;5076088;28;20021;-63
2021/07/19 00:29:48;;;;;;;4.60;3.90;;;13.00;99.90;;;;;;5076030;28;20366;-62
2021/07/19 00:32:15;;;;;;;4.20;3.55;;;13.10;99.30;;;;;;5076153;28;20480;-63
2021/07/19 00:34:42;;;;;;;4.93;3.00;;;13.40;99.70;;;;;;5074665;28;20111;-64
2021/07/19 00:37:10;;;;;;;4.50;3.60;;;13.40;98.30;;;;;;5075882;28;20056;-61
2021/07/19 00:39:37;;;;;;;3.40;3.10;;;13.40;98.50;;;;;;5075719;28;20078;-61
2021/07/19 00:42:05;;;;;;;3.30;3.00;;;13.20;98.10;;;;;;5075820;28;20069;-62
2021/07/19 00:44:33;;;;;;;3.85;3.10;;;13.00;98.40;;;;;;5075813;28;20020;-62
2021/07/19 00:47:00;;;;;;;3.92;3.30;;;13.20;98.70;;;;;;5075763;28;20048;-61
2021/07/19 00:49:33;;;;;;;3.28;3.05;;;13.70;98.60;;;;;;5075633;28;20105;-60
2021/07/19 00:52:00;;;;;;;4.35;2.90;;;13.20;98.40;;;;;;5075670;28;20017;-60
2021/07/19 00:54:31;;;;;;;2.92;2.72;;;13.10;98.50;;;;;;5075687;28;20606;-60
2021/07/19 00:57:01;;;;;;;3.10;2.90;;;13.30;98.60;;;;;;5075353;28;20048;-62
2021/07/19 00:59:33;;;;;;;2.90;2.70;;;13.40;98.00;;;;;;5075488;28;20025;-62
2021/07/19 01:02:05;;;;;;;2.60;2.40;;;13.50;97.90;;;;;;5075465;28;20016;-62
2021/07/19 01:04:33;;;;;;;4.20;2.50;;;13.50;97.60;;;;;;5075649;28;20019;-63
2021/07/19 01:07:04;;;;;;;2.70;2.50;;;13.60;97.90;;;;;;5075531;28;20089;-64
2021/07/19 01:09:31;;;;;;;;;;;13.50;97.40;;;;;;5075986;28;20107;-62
2021/07/19 01:12:00;;;;;;;2.88;2.60;;;13.40;96.60;;;;;;5074117;28;19998;-62
2021/07/19 01:14:28;;;;;;;3.40;2.72;;;13.50;97.70;;;;;;5075260;28;20098;-63
2021/07/19 01:16:55;;;;;;;2.70;2.25;;;13.80;98.00;;;;;;5075429;28;20024;-62
2021/07/19 01:19:25;;;;;;;2.70;2.50;;;14.10;96.60;;;;;;5075145;28;20020;-63
2021/07/19 01:22:29;;;;;;;3.03;2.92;;;14.00;97.20;;;;;;5075255;28;20070;-64
2021/07/19 01:25:46;;;;;;;3.70;2.95;;;13.60;96.60;;;;;;5075091;28;20069;-63
2021/07/19 01:28:26;;;;;;;3.13;2.80;;;13.20;97.30;;;;;;5062222;28;20121;-64
2021/07/19 01:30:56;;;;;;;2.78;2.67;;;13.30;97.20;;;;;;5075004;28;20108;-65
2021/07/19 01:33:25;;;;;;;2.90;2.70;;;13.50;97.30;;;;;;5074830;28;20512;-65
2021/07/19 01:35:55;;;;;;;3.30;2.80;;;13.70;97.20;;;;;;5073584;28;20077;-63
2021/07/19 01:38:23;;;;;;;3.40;2.75;;;13.90;97.20;;;;;;5074875;28;20484;-66
2021/07/19 01:40:51;;;;;;;3.42;3.13;;;14.10;96.80;;;;;;5074764;28;20032;-66
2021/07/19 01:43:19;;;;;;;2.70;2.50;;;13.80;96.60;;;;;;5074511;28;20108;-63
2021/07/19 01:45:48;;;;;;;3.17;2.97;;;13.60;96.70;;;;;;5074633;28;20017;-62
2021/07/19 01:48:16;;;;;;;3.22;3.03;;;13.50;97.00;;;;;;5074533;28;20099;-62
2021/07/19 01:50:44;;;;;;;2.90;2.80;;;13.60;97.00;;;;;;5074424;28;20044;-62
2021/07/19 01:53:12;;;;;;;2.90;2.70;;;13.70;96.40;;;;;;5074422;28;20026;-62
2021/07/19 01:55:40;;;;;;;3.00;2.70;;;13.70;96.80;;;;;;5074228;28;20028;-63
2021/07/19 01:58:08;;;;;;;3.20;2.90;;;13.90;96.80;;;;;;5075107;28;20028;-63
2021/07/19 02:00:35;;;;;;;2.90;2.70;;;13.90;96.50;;;;;;5074305;28;20108;-62
2021/07/19 02:03:03;;;;;;;3.05;2.85;;;13.70;96.50;;;;;;5074290;28;20013;-62
2021/07/19 02:05:30;;;;;;;2.90;2.80;;;13.80;96.30;;;;;;5074206;28;20438;-62
2021/07/19 02:08:01;;;;;;;4.03;3.10;;;14.00;96.40;;;;;;5074117;28;20069;-62
2021/07/19 02:10:30;;;;;;;3.83;3.33;;;14.00;96.30;;;;;;5074438;28;20021;-62
2021/07/19 02:12:59;;;;;;;3.45;3.25;;;14.10;96.00;;;;;;5074186;28;20075;-62
2021/07/19 02:15:28;;;;;;;3.50;3.30;;;14.30;96.10;;;;;;5074800;28;20028;-62
2021/07/19 02:18:01;;;;;;;3.88;3.35;;;14.20;95.70;;;;;;5074894;28;20024;-62
2021/07/19 02:20:29;;;;;;;4.10;3.70;;;14.20;95.70;;;;;;5074837;28;20035;-62
2021/07/19 02:22:57;;;;;;;3.17;3.00;;;14.20;95.70;;;;;;5073766;28;20032;-62
2021/07/19 02:25:25;;;;;;;3.28;3.08;;;14.50;96.20;;;;;;5074033;28;20044;-63
2021/07/19 02:27:54;;;;;;;3.58;3.38;;;14.80;95.20;;;;;;5073840;28;20032;-63
2021/07/19 02:30:24;;;;;;;3.90;3.60;;;14.80;95.50;;;;;;5073758;28;20032;-60
2021/07/19 02:32:55;;;;;;;3.80;3.50;;;14.70;95.00;;;;;;5074086;28;20028;-63
2021/07/19 02:35:27;;;;;;;3.15;2.90;;;14.70;95.00;;;;;;5073791;28;20032;-63
2021/07/19 02:38:09;;;;;;;3.53;3.22;;;14.70;95.00;;;;;;5073602;28;20025;-65
2021/07/19 02:40:39;;;;;;;3.70;3.40;;;14.90;94.90;;;;;;5073666;28;20054;-65
2021/07/19 02:43:09;;;;;;;3.40;3.20;;;15.00;94.20;;;;;;5073620;28;20024;-65
2021/07/19 02:45:41;;;;;;;3.60;3.40;;;14.90;94.50;;;;;;5073502;28;20039;-65
2021/07/19 02:48:12;;;;;;;3.15;2.95;;;14.70;94.50;;;;;;5073727;28;20103;-66
2021/07/19 02:50:42;;;;;;;3.30;3.00;;;14.70;94.30;;;;;;5073792;28;20025;-65
2021/07/19 02:53:14;;;;;;;4.43;3.00;;;14.70;94.60;;;;;;5073414;28;20024;-66
2021/07/19 02:55:43;;;;;;;3.40;3.10;;;14.60;94.60;;;;;;5072052;28;20077;-65
2021/07/19 02:58:16;;;;;;;3.63;3.33;;;14.30;94.80;;;;;;5073500;28;20107;-65
2021/07/19 03:00:45;;;;;;;3.75;3.47;;;14.40;95.40;;;;;;5073478;28;20223;-65
2021/07/19 03:03:21;;;;;;;3.80;3.50;;;14.80;94.20;;;;;;5073270;28;20068;-65
2021/07/19 03:05:56;;;;;;;3.90;3.60;;;14.90;94.40;;;;;;5073676;28;20017;-65
2021/07/19 03:08:25;;;;;;;3.80;3.42;;;15.10;94.10;;;;;;5073752;28;20078;-62
2021/07/19 03:10:54;;;;;;;4.55;3.70;;;15.30;93.90;;;;;;5073265;28;20028;-63
2021/07/19 03:13:26;;;;;;;3.80;3.50;;;15.40;94.40;;;;;;5073360;28;20502;-66
2021/07/19 03:15:55;;;;;;;2.70;2.60;;;15.70;94.00;;;;;;5073613;28;20025;-64
2021/07/19 03:18:24;;;;;;;3.88;3.03;;;15.90;93.20;;;;;;5073510;28;20548;-64
2021/07/19 03:20:53;;;;;;;3.40;3.20;;;15.50;93.00;;;;;;5073035;28;20103;-68
2021/07/19 03:23:24;;;;;;;2.90;2.72;;;15.30;94.20;;;;;;5073089;28;20104;-66
2021/07/19 03:25:53;;;;;;;2.97;2.78;;;15.50;94.00;;;;;;5073324;28;20021;-66
2021/07/19 03:28:21;;;;;;;2.85;2.65;;;15.30;92.70;;;;;;5073060;28;20013;-65
2021/07/19 03:30:50;;;;;;;4.40;2.60;;;15.10;93.00;;;;;;5073343;28;20024;-65
2021/07/19 03:33:17;;;;;;;2.47;2.38;;;15.20;93.20;;;;;;5071623;28;20440;-64
2021/07/19 03:35:45;;;;;;;2.50;2.40;;;15.20;93.00;;;;;;5072211;28;20056;-63
2021/07/19 03:38:18;;;;;;;3.03;2.80;;;15.00;93.10;;;;;;5072898;28;20025;-62
2021/07/19 03:40:45;;;;;;;3.25;2.95;;;14.90;93.40;;;;;;5072946;28;20392;-61
2021/07/19 03:43:13;;;;;;;3.13;2.92;;;15.10;93.70;;;;;;5073086;28;20043;-62
2021/07/19 03:45:41;;;;;;;2.70;2.60;;;15.20;93.70;;;;;;5072791;28;20023;-62
2021/07/19 03:48:08;;;;;;;2.75;2.65;;;15.20;93.30;;;;;;5072717;28;20017;-63
2021/07/19 03:50:37;;;;;;;2.85;2.70;;;15.10;93.40;;;;;;5072653;28;20115;-63
2021/07/19 03:53:06;;;;;;;3.25;2.95;;;15.50;94.20;;;;;;5072685;28;20020;-62
2021/07/19 03:55:33;;;;;;;2.78;2.60;;;15.70;93.00;;;;;;5072552;28;20032;-62
2021/07/19 03:58:01;;;;;;;2.90;2.70;;;15.60;93.50;;;;;;5072750;28;20119;-67
2021/07/19 04:00:30;;;;;;;2.35;2.25;;;15.70;93.40;;;;;;5072598;28;20021;-67
2021/07/19 04:02:57;;;;;;;3.13;2.88;;;15.70;93.30;;;;;;5072414;28;20067;-64
2021/07/19 04:05:27;;;;;;;2.30;2.20;;;15.50;93.10;;;;;;5072616;28;20044;-67
2021/07/19 04:07:55;;;;;;;2.40;2.30;;;15.30;93.30;;;;;;5072421;28;20024;-65
2021/07/19 04:10:22;;;;;;;2.50;2.40;;;15.60;92.80;;;;;;5072399;28;20028;-65
2021/07/19 04:12:52;;;;;;;2.78;2.33;;;16.00;93.50;;;;;;5072400;28;20025;-65
2021/07/19 04:15:20;;;;;;;3.20;3.00;;;15.90;92.50;;;;;;5072426;28;20103;-64
2021/07/19 04:17:48;;;;;;;2.65;2.45;;;15.80;93.40;;;;;;5072548;28;20063;-64
2021/07/19 04:20:19;;;;;;;3.88;2.70;;;15.60;92.70;;;;;;5072296;28;20024;-64
2021/07/19 04:22:47;;;;;;;2.60;2.30;;;15.40;93.30;;;;;;5072465;28;20541;-61
2021/07/19 04:25:15;;;;;;;2.00;1.90;;;15.40;93.70;;;;;;5072444;28;20020;-61
2021/07/19 04:27:44;;;;;;;2.58;2.47;;;15.30;93.70;;;;;;5072518;28;20016;-61
2021/07/19 04:30:14;;;;;;;2.33;2.22;;;15.20;93.70;;;;;;5072292;28;20077;-61
2021/07/19 04:32:47;;;;;;;2.25;2.10;;;15.20;94.20;;;;;;5072229;28;20024;-60
2021/07/19 04:35:21;;;;;;;3.15;2.85;;;15.20;94.30;;;;;;5072336;28;20040;-58
2021/07/19 04:37:50;;;;;;;2.60;2.40;;;15.10;94.70;;;;;;5072290;28;20032;-60
2021/07/19 04:40:18;;;;;;;2.30;2.20;;;15.20;94.00;;;;;;5072118;28;20427;-60
2021/07/19 04:42:46;;;;;;;2.70;2.50;;;15.10;94.30;;;;;;5072270;28;20023;-60
2021/07/19 04:45:19;;;;;;;4.03;2.20;;;15.10;94.00;;;;;;5072170;28;20051;-60
2021/07/19 04:47:50;;;;;;;2.30;2.10;;;15.20;94.40;;;;;;5075690;28;20025;-62
2021/07/19 04:50:19;;;;;;;3.60;2.15;;;15.30;94.10;;;;;;5075741;28;20020;-65
2021/07/19 04:52:47;;;;;;;2.22;2.13;;;15.20;93.90;;;;;;5075584;28;20100;-66
2021/07/19 04:55:20;;;;;;;1.90;1.80;;;15.10;93.70;;;;;;5075524;28;20104;-65
2021/07/19 04:57:53;;;;;;;2.30;2.10;;;15.00;94.40;;;;;;5075473;28;20067;-66
2021/07/19 05:00:21;;;;;;;3.28;2.20;;;15.20;94.20;;;;;;5075546;28;20086;-63
2021/07/19 05:02:51;;;;;;;2.50;2.40;;;15.00;93.70;;;;;;5075463;28;20048;-60
2021/07/19 05:05:22;;;;;;;2.40;2.25;;;14.90;93.60;;;;;;5075475;28;20012;-60
2021/07/19 05:07:52;;;;;;;2.33;2.20;;;14.90;94.50;;;;;;5075414;28;20099;-61
2021/07/19 05:10:26;;;;;;;2.20;2.10;;;15.00;94.10;;;;;;5075279;28;20024;-62
2021/07/19 05:12:54;;;;;;;2.35;2.20;;;14.90;94.20;;;;;;5075352;28;20025;-65
2021/07/19 05:15:22;;;;;;;2.55;2.45;;;15.00;94.70;;;;;;5075302;28;20048;-63
2021/07/19 05:17:50;;;;;;;2.50;2.40;;;15.00;94.60;;;;;;5075309;28;20074;-64
2021/07/19 05:20:20;;;;;;;2.63;2.42;;;14.90;94.30;;;;;;5073794;28;20024;-69
2021/07/19 05:22:53;;;;;;;2.10;2.00;;;14.80;94.30;;;;;;5075133;28;20024;-68
2021/07/19 05:25:31;;;;;;;2.20;2.10;;;14.80;95.30;;;;;;5075124;28;20025;-68
2021/07/19 05:28:09;;;;;;;2.60;2.50;;;14.80;94.80;;;;;;5074838;28;20016;-66
2021/07/19 05:30:39;;;;;;;2.60;2.40;;;14.70;94.50;;;;;;5074891;28;20131;-67
2021/07/19 05:33:07;;;;;;;2.20;2.10;;;14.80;94.60;;;;;;5075119;28;20025;-63
2021/07/19 05:35:34;;;;;;;2.53;2.33;;;14.80;94.60;;;;;;5074951;28;20066;-66
2021/07/19 05:38:02;;;;;;;2.38;2.17;;;14.60;94.50;;;;;;5074766;28;20561;-65
2021/07/19 05:40:33;;;;;;;2.20;2.10;;;14.60;94.70;;;;;;5074716;28;20545;-62
2021/07/19 05:43:00;;;;;;;;;;;14.50;95.00;;;;;;5074286;28;20031;-66
2021/07/19 05:45:27;;;;;;;2.35;2.25;;;14.60;95.10;;;;;;5074665;28;19905;-66
2021/07/19 05:47:55;;;;;;;2.20;2.10;;;14.50;95.20;;;;;;5074428;28;20017;-66
2021/07/19 05:50:23;;;;;;;2.10;2.00;;;14.50;94.70;;;;;;5074428;28;20033;-66
2021/07/19 05:52:50;;;;;;;2.30;2.20;;;14.40;94.70;;;;;;5074419;28;20044;-65
2021/07/19 05:55:18;;;;;;;2.40;2.20;;;14.40;95.10;;;;;;5074325;28;20034;-65
2021/07/19 05:57:45;;;;;;;2.47;2.30;;;14.30;94.70;;;;;;5073272;28;20049;-65
2021/07/19 06:00:16;;;;;;;3.45;2.47;;;14.20;94.90;;;;;;5074113;28;20424;-65
2021/07/19 06:02:44;;;;;;;2.70;2.60;;;14.20;95.40;;;;;;5074142;28;20476;-66
2021/07/19 06:05:13;;;;;;;4.95;2.88;;;14.20;95.80;;;;;;5074153;28;20035;-65
2021/07/19 06:07:40;;;;;;;3.22;3.00;;;14.30;95.90;;;;;;5074156;28;20024;-64
2021/07/19 06:10:11;;;;;;;2.80;2.70;;;14.20;95.20;;;;;;5074016;28;20059;-65
2021/07/19 06:12:38;;;;;;;;;;;14.10;95.10;;;;;;5074430;28;20457;-66
2021/07/19 06:15:07;;;;;;;2.40;2.30;;;14.10;94.70;;;;;;5074214;28;20348;-66
2021/07/19 06:17:38;;;;;;;2.45;2.35;;;14.00;94.30;;;;;;5073805;28;20555;-66
2021/07/19 06:20:15;;;;;;;2.47;2.38;;;14.00;94.80;;;;;;5073690;28;20025;-61
2021/07/19 06:22:44;;;;;;;2.45;2.35;;;14.00;94.50;;;;;;5073726;28;20025;-60
2021/07/19 06:25:14;;;;;;;2.78;2.67;;;14.00;94.60;;;;;;5073661;28;20032;-61
2021/07/19 06:27:42;;;;;;;2.65;2.53;;;13.90;94.70;;;;;;5074043;28;20021;-61
2021/07/19 06:30:12;;;;;;;2.72;2.63;;;13.90;94.50;;;;;;5073713;28;20020;-61
2021/07/19 06:32:40;;;;;;;2.55;2.45;;;13.90;94.70;;;;;;5073678;28;20032;-61
2021/07/19 06:35:08;;;;;;;2.85;2.65;;;13.80;94.70;;;;;;5073606;28;20032;-64
2021/07/19 06:37:36;;;;;;;2.70;2.50;;;13.80;94.70;;;;;;5072210;28;20066;-64
2021/07/19 06:40:05;;;;;;;2.45;2.28;;;13.70;94.90;;;;;;5073400;28;20066;-66
2021/07/19 06:42:32;;;;;;;3.88;2.70;;;13.70;94.80;;;;;;5073407;28;20017;-65
2021/07/19 06:44:59;;;;;;;2.83;2.63;;;13.60;94.80;;;;;;5073395;28;20021;-63
2021/07/19 06:47:28;;;;;;;2.83;2.72;;;13.60;95.00;;;;;;5073366;28;20021;-64
2021/07/19 06:49:57;;;;;;;3.22;2.95;;;13.50;95.10;;;;;;5073303;28;20035;-64
2021/07/19 06:52:25;;;;;;;3.00;2.80;;;13.50;95.20;;;;;;5073109;28;20021;-64
2021/07/19 06:54:53;;;;;;;3.42;2.90;;;13.40;95.00;;;;;;5073374;28;20098;-64
2021/07/19 06:57:21;;;;;;;3.00;2.80;;;13.40;95.30;;;;;;5073128;28;20044;-65
2021/07/19 06:59:49;;;;;;;2.88;2.67;;;13.30;95.30;;;;;;5073059;28;20028;-65
2021/07/19 07:02:17;;;;;;;2.95;2.72;;;13.30;95.90;;;;;;5073129;28;20040;-65
2021/07/19 07:04:45;;;;;;;2.88;2.70;;;13.20;95.30;;;;;;5073110;28;20020;-65
2021/07/19 07:07:12;;;;;;;3.35;3.15;;;13.20;95.80;;;;;;5073101;28;20021;-64
2021/07/19 07:09:39;;;;;;;2.83;2.72;;;13.20;95.80;;;;;;5073082;28;20028;-64
2021/07/19 07:12:07;;;;;;;3.28;2.97;;;13.20;95.60;;;;;;5073035;28;20029;-65
2021/07/19 07:14:34;;;;;;;3.53;3.22;;;13.10;95.70;;;;;;5073063;28;20032;-65
2021/07/19 07:17:02;;;;;;;2.70;2.60;;;13.10;95.40;;;;;;5072910;28;20067;-65
2021/07/19 07:19:29;;;;;;;2.92;2.70;;;13.00;95.90;;;;;;5072879;28;20039;-65
2021/07/19 07:21:56;;;;;;;3.50;3.25;;;13.00;95.80;;;;;;5072918;28;20069;-64
2021/07/19 07:24:24;;;;;;;3.10;2.90;;;13.00;95.70;;;;;;5072912;28;20025;-64
2021/07/19 07:26:51;;;;;;;4.03;3.72;;;12.90;95.80;;;;;;5072929;28;20020;-64
2021/07/19 07:29:18;;;;;;;3.70;3.50;;;12.90;96.00;;;;;;5072962;28;20070;-64
2021/07/19 07:31:46;;;;;;;3.30;3.00;;;12.80;96.10;;;;;;5072856;28;20024;-65
2021/07/19 07:34:13;;;;;;;3.25;3.10;;;12.70;95.90;;;;;;5072968;28;20060;-64
2021/07/19 07:36:40;;;;;;;3.20;3.00;;;12.70;96.10;;;;;;5072811;28;20029;-64
2021/07/19 07:39:08;;;;;;;3.78;3.15;;;12.70;96.40;;;;;;5073011;28;20020;-65
2021/07/19 07:41:35;;;;;;;3.20;3.00;;;12.60;96.30;;;;;;5072728;28;20120;-64
2021/07/19 07:44:02;;;;;;;2.90;2.70;;;12.50;97.10;;;;;;5072896;28;20031;-65
2021/07/19 07:46:30;;;;;;;2.63;2.42;;;12.40;96.80;;;;;;5072818;28;20104;-65
2021/07/19 07:48:57;;;;;;;3.00;2.80;;;12.30;97.10;;;;;;5072862;28;20017;-65
2021/07/19 07:51:25;;;;;;;3.67;3.38;;;12.30;97.00;;;;;;5072675;28;20024;-65
2021/07/19 07:53:52;;;;;;;4.43;4.13;;;12.20;97.70;;;;;;5072540;28;20024;-65
2021/07/19 07:56:19;;;;;;;5.28;4.78;;;12.10;97.80;;;;;;5072293;28;20045;-65
2021/07/19 07:58:47;;;;;;;6.05;5.53;;;11.90;98.10;;;;;;5072470;28;20021;-64
2021/07/19 08:01:14;;;;;;;6.45;5.85;;;11.80;99.60;;;;;;5072257;28;20497;-64
2021/07/19 08:03:41;;;;;;;5.97;5.38;;;11.70;99.90;;;;;;5072287;28;20164;-62
2021/07/19 08:06:09;;;;;;;6.32;5.10;;;11.50;99.90;;;;;;5072408;28;20017;-61
2021/07/19 08:08:36;;;;;;;4.50;4.10;;;11.50;99.90;;;;;;5072470;28;20024;-61
2021/07/19 08:11:04;;;;;;;4.00;3.70;;;11.40;99.90;;;;;;5072243;28;20029;-62
2021/07/19 08:13:31;;;;;;;3.63;3.33;;;11.40;99.90;;;;;;5072429;28;20024;-61
2021/07/19 08:15:59;;;;;;;3.50;3.20;;;11.30;99.90;;;;;;5072404;28;20029;-62
2021/07/19 08:18:26;;;;;;;3.65;3.35;;;11.30;99.90;;;;;;5072358;28;20024;-61
2021/07/19 08:20:53;;;;;;;3.80;3.50;;;11.30;99.90;;;;;;5073107;28;20059;-64
2021/07/19 08:23:21;;;;;;;3.60;3.30;;;11.40;99.90;;;;;;5076219;28;20024;-65
2021/07/19 08:25:48;;;;;;;3.92;3.63;;;11.40;99.90;;;;;;5076108;28;20024;-65
2021/07/19 08:28:15;;;;;;;4.00;3.70;;;11.40;99.90;;;;;;5076051;28;20028;-65
2021/07/19 08:30:43;;;;;;;4.57;4.05;;;11.30;99.90;;;;;;5075950;28;20027;-65
2021/07/19 08:33:10;;;;;;;5.13;4.53;;;11.30;99.90;;;;;;5075934;28;20495;-65
2021/07/19 08:35:39;;;;;;;5.38;4.88;;;11.40;99.90;;;;;;5075923;28;20031;-65
2021/07/19 08:38:07;;;;;;;5.07;4.68;;;11.30;99.90;;;;;;5074306;28;20165;-64
2021/07/19 08:40:35;;;;;;;5.60;5.15;;;11.40;99.90;;;;;;5075651;28;20039;-65
2021/07/19 08:43:04;;;;;;;5.55;4.97;;;11.30;99.90;;;;;;5076285;28;20012;-65
2021/07/19 08:45:32;;;;;;;5.00;4.60;;;11.40;99.90;;;;;;5075968;28;20388;-65
2021/07/19 08:48:00;;;;;;;5.38;4.85;;;11.50;99.90;;;;;;5075613;28;20040;-64
2021/07/19 08:50:27;;;;;;;5.28;4.88;;;11.50;99.90;;;;;;5075372;28;20362;-64
2021/07/19 08:52:56;;;;;;;5.70;4.90;;;11.50;99.90;;;;;;5075589;28;20496;-64
2021/07/19 08:55:24;;;;;;;5.13;4.72;;;11.40;99.90;;;;;;5075535;28;20035;-66
2021/07/19 08:57:52;;;;;;;5.38;4.95;;;11.50;99.90;;;;;;5075547;28;20033;-63
2021/07/19 09:00:22;;;;;;;4.38;4.07;;;11.40;99.90;;;;;;5075384;28;20025;-64
2021/07/19 09:02:49;;;;;;;4.78;4.38;;;11.40;99.90;;;;;;5075537;28;20023;-66
2021/07/19 09:05:17;;;;;;;5.32;4.82;;;11.30;99.90;;;;;;5075546;28;20023;-66
2021/07/19 09:07:44;;;;;;;5.57;4.90;;;11.40;99.90;;;;;;5075466;28;20032;-65
2021/07/19 09:10:13;;;;;;;6.43;5.75;;;11.30;99.90;;;;;;5075489;28;20104;-64
2021/07/19 09:12:43;;;;;;;5.88;5.40;;;11.20;99.90;;;;;;5075161;28;20081;-64
2021/07/19 09:15:13;;;;;;;5.82;5.30;;;11.20;99.90;;;;;;5073879;28;20029;-64
2021/07/19 09:17:41;;;;;;;6.20;5.60;;;11.20;99.90;;;;;;5075179;28;20024;-64
2021/07/19 09:20:13;;;;;;;5.85;5.35;;;11.10;99.90;;;;;;5075144;28;20103;-65
2021/07/19 09:22:40;;;;;;;5.78;5.22;;;11.00;99.90;;;;;;5075200;28;20021;-65
2021/07/19 09:25:15;;;;;;;6.60;5.78;;;11.00;99.90;;;;;;5075155;28;20028;-64
2021/07/19 09:28:09;;;;;;;5.82;5.20;;;11.00;99.90;;;;;;5073858;28;20484;-65
2021/07/19 09:30:39;;;;;;;5.15;4.75;;;10.90;99.90;;;;;;5074958;28;20103;-64
2021/07/19 09:33:11;;;;;;;5.82;5.20;;;10.80;99.90;;;;;;5073782;28;20485;-64
2021/07/19 09:35:45;;;;;;;5.68;5.07;;;10.80;99.90;;;;;;5075004;28;20016;-66
2021/07/19 09:38:18;;;;;;;6.07;5.15;;;10.80;99.90;;;;;;5075033;28;20026;-65
2021/07/19 09:40:56;;;;;;;5.40;4.90;;;10.80;99.90;;;;;;5074687;28;20513;-66
2021/07/19 09:43:26;;;;;;;6.53;4.80;;;10.70;99.90;;;;;;5074907;28;20027;-66
2021/07/19 09:46:01;;;;;;;5.07;4.68;;;10.70;99.90;;;;;;5074722;28;20040;-65
2021/07/19 09:48:29;;;;;;;7.43;5.30;;;10.70;99.90;;;;;;5074721;28;20029;-66
2021/07/19 09:50:57;;;;;;;5.35;4.85;;;10.60;99.90;;;;;;5074531;28;20032;-65
2021/07/19 09:53:34;;;;;;;10.00;5.68;;;10.60;99.90;;;;;;5074568;28;20028;-65
2021/07/19 09:56:22;;;;;;;5.82;5.32;;;10.60;99.90;;;;;;5074243;28;20102;-65
2021/07/19 09:59:03;;;;;;;6.40;5.80;;;10.60;99.90;;;;;;5074474;28;20020;-71
2021/07/19 10:01:34;;;;;;;6.72;6.03;;;10.60;99.90;;;;;;5074380;28;20056;-68
2021/07/19 10:04:08;;;;;;;7.50;6.80;;;10.50;99.90;;;;;;5072994;28;20385;-68
2021/07/19 10:06:38;;;;;;;6.97;6.22;;;10.40;99.90;;;;;;5074282;28;20017;-69
2021/07/19 10:09:08;;;;;;;6.45;5.85;;;10.40;99.90;;;;;;5074304;28;20020;-69
2021/07/19 10:11:38;;;;;;;6.00;5.38;;;10.30;99.90;;;;;;5072938;28;20442;-68
2021/07/19 10:14:07;;;;;;;6.93;5.38;;;10.30;99.90;;;;;;5074669;28;20461;-67
2021/07/19 10:16:35;;;;;;;6.60;6.00;;;10.30;99.90;;;;;;5074109;28;20059;-66
2021/07/19 10:19:04;;;;;;;6.25;5.40;;;10.20;99.90;;;;;;5074050;28;20070;-61
2021/07/19 10:21:33;;;;;;;5.97;5.05;;;10.20;99.90;;;;;;5073922;28;20389;-62
2021/07/19 10:24:03;;;;;;;5.55;5.10;;;10.20;99.90;;;;;;5072862;28;20052;-64
2021/07/19 10:26:32;;;;;;;5.18;4.72;;;10.30;99.90;;;;;;5073949;28;20013;-63
2021/07/19 10:29:00;;;;;;;6.15;5.65;;;10.20;99.90;;;;;;5073673;28;20518;-66
2021/07/19 10:31:29;;;;;;;5.88;5.38;;;10.20;99.90;;;;;;5073739;28;20020;-64
2021/07/19 10:33:59;;;;;;;5.82;5.30;;;10.20;99.90;;;;;;5073741;28;20028;-64
2021/07/19 10:36:41;;;;;;;5.53;5.07;;;10.10;99.90;;;;;;5073485;28;20073;-64
2021/07/19 10:39:20;;;;;;;5.43;4.97;;;10.10;99.90;;;;;;5073665;28;20021;-66
2021/07/19 10:42:00;;;;;;;5.50;5.07;;;10.10;99.90;;;;;;5073978;28;20442;-65
2021/07/19 10:44:33;;;;;;;5.32;4.93;;;10.10;99.90;;;;;;5073530;28;20032;-66
2021/07/19 10:47:27;;;;;;;6.38;5.78;;;10.10;99.90;;;;;;5072164;28;20031;-66
2021/07/19 10:50:07;;;;;;;6.22;5.20;;;10.10;99.90;;;;;;5073432;28;20476;-66
2021/07/19 10:52:38;;;;;;;5.83;5.30;;;10.00;99.90;;;;;;5073435;28;20107;-64
2021/07/19 10:55:10;;;;;;;5.68;5.18;;;10.00;99.90;;;;;;5073253;28;20253;-64
2021/07/19 10:57:44;;;;;;;5.43;4.93;;;10.10;99.90;;;;;;5072997;28;20048;-64
2021/07/19 11:00:19;;;;;;;6.20;5.53;;;10.10;99.90;;;;;;5073180;28;20017;-66
2021/07/19 11:02:47;;;;;;;6.30;5.78;;;10.00;99.90;;;;;;5073177;28;20026;-65
2021/07/19 11:05:15;;;;;;;6.07;5.57;;;10.00;99.90;;;;;;5072970;28;20027;-65
2021/07/19 11:07:44;;;;;;;5.90;5.30;;;9.90;99.90;;;;;;5073271;28;20099;-65
2021/07/19 11:10:22;;;;;;;6.32;5.70;;;9.90;99.90;;;;;;5073056;28;20023;-64
2021/07/19 11:12:56;;;;;;;8.00;5.78;;;9.80;99.90;;;;;;5073072;28;20028;-65
2021/07/19 11:15:42;;;;;;;5.90;5.50;;;9.70;99.90;;;;;;5073018;28;20040;-64
2021/07/19 11:18:26;;;;;;;6.00;5.60;;;9.60;99.90;;;;;;5073249;28;20025;-64
2021/07/19 11:20:55;;;;;;;6.50;6.00;;;9.50;99.90;;;;;;5072883;28;20472;-65
2021/07/19 11:23:38;;;;;;;6.40;5.90;;;9.40;99.90;;;;;;5073208;28;20020;-65
2021/07/19 11:26:27;;;;;;;6.43;6.03;;;9.30;99.90;;;;;;5072881;28;20070;-65
2021/07/19 11:28:57;;;;;;;6.20;5.80;;;9.20;99.90;;;;;;5072827;28;20384;-65
2021/07/19 11:31:28;;;;;;;6.18;5.72;;;9.20;99.90;;;;;;5073059;28;20031;-66
2021/07/19 11:34:01;;;;;;;6.35;5.85;;;9.20;99.90;;;;;;5072777;28;20043;-65
2021/07/19 11:36:47;;;;;;;5.90;5.40;;;9.10;99.90;;;;;;5071454;28;20029;-67
2021/07/19 11:39:19;;;;;;;5.90;5.50;;;9.20;99.90;;;;;;5072851;28;20028;-65
2021/07/19 11:41:58;;;;;;;6.00;5.60;;;9.30;99.90;;;;;;5072861;28;20082;-66
2021/07/19 11:44:27;;;;;;;6.30;5.70;;;9.30;99.90;;;;;;5071381;28;20365;-65
2021/07/19 11:46:57;;;;;;;6.25;5.82;;;9.30;99.90;;;;;;5072659;28;20020;-65
2021/07/19 11:49:25;;;;;;;7.75;7.07;;;9.20;99.90;;;;;;5072772;28;20017;-65
2021/07/19 11:51:53;;;;;;;7.80;7.20;;;9.20;99.90;;;;;;5072619;28;20032;-64
2021/07/19 11:54:20;;;;;;;6.78;6.38;;;9.10;99.90;;;;;;5072527;28;20021;-66
2021/07/19 11:56:56;;;;;;;7.25;6.72;;;9.10;99.90;;;;;;5075000;28;20040;-66
2021/07/19 11:59:28;;;;;;;6.60;6.20;;;9.00;99.90;;;;;;5076646;28;20485;-65
2021/07/19 12:02:01;;;;;;;6.85;6.32;;;8.90;99.90;;;;;;5076717;28;20012;-64
2021/07/19 12:04:47;;;;;;;7.60;7.03;;;8.90;99.90;;;;;;5076493;28;20020;-66
2021/07/19 12:07:14;;;;;;;7.35;6.85;;;9.00;99.90;;;;;;5076619;28;20027;-65
2021/07/19 12:09:44;;;;;;;7.20;6.80;;;8.90;99.90;;;;;;5076515;28;20017;-65
2021/07/19 12:12:13;;;;;;;7.20;6.70;;;9.00;99.90;;;;;;5075150;28;20490;-66
2021/07/19 12:14:40;;;;;;;6.97;6.57;;;8.90;99.90;;;;;;5076349;28;20075;-65
2021/07/19 12:17:08;;;;;;;7.10;6.70;;;8.90;99.90;;;;;;5076273;28;20044;-67
2021/07/19 12:19:35;;;;;;;6.85;6.45;;;8.90;99.90;;;;;;5076096;28;20385;-65
2021/07/19 12:22:03;;;;;;;6.15;5.85;;;8.90;99.90;;;;;;5076187;28;20020;-65
2021/07/19 12:24:32;;;;;;;6.30;5.80;;;8.80;99.90;;;;;;5076130;28;20053;-64
2021/07/19 12:27:04;;;;;;;6.32;6.00;;;8.80;99.90;;;;;;5076343;28;20122;-66
2021/07/19 12:29:42;;;;;;;7.40;6.78;;;8.70;99.90;;;;;;5074824;28;20028;-66
2021/07/19 12:32:12;;;;;;;6.90;6.50;;;8.80;99.90;;;;;;5076131;28;20052;-66
2021/07/19 12:34:43;;;;;;;6.55;6.15;;;8.70;99.90;;;;;;5075964;28;20013;-66
2021/07/19 12:37:14;;;;;;;6.85;6.40;;;8.60;99.90;;;;;;5075921;28;20023;-65
2021/07/19 12:39:47;;;;;;;6.50;6.00;;;8.70;99.90;;;;;;5075938;28;20044;-65
2021/07/19 12:42:24;;;;;;;6.18;5.88;;;8.80;99.90;;;;;;5074607;28;20107;-66
2021/07/19 12:44:56;;;;;;;6.70;6.30;;;8.90;99.90;;;;;;5074636;28;20028;-67
2021/07/19 12:47:26;;;;;;;5.95;5.57;;;8.90;99.90;;;;;;5075803;28;20051;-67
2021/07/19 12:49:53;;;;;;;6.25;5.85;;;8.90;99.90;;;;;;5075835;28;20052;-67
2021/07/19 12:52:23;;;;;;;5.97;5.68;;;8.90;99.90;;;;;;5075773;28;20031;-66
2021/07/19 12:55:00;;;;;;;5.63;5.32;;;9.00;99.90;;;;;;5075748;28;20052;-66
2021/07/19 12:57:33;;;;;;;6.28;5.97;;;8.80;99.90;;;;;;5075468;28;20116;-67
2021/07/19 13:00:16;;;;;;;5.88;5.57;;;8.80;99.90;;;;;;5075538;28;20024;-66
2021/07/19 13:02:44;;;;;;;6.22;5.93;;;8.90;99.90;;;;;;5075766;28;20030;-66